createdAt,value
2023-01-20T00:00:52.064Z,2.30
2023-01-20T00:02:25.029Z,1.60
2023-01-20T00:03:58.935Z,1.70
2023-01-20T00:05:31.918Z,2.20
2023-01-20T00:07:05.004Z,1.70
2023-01-20T00:08:36.975Z,1.60
2023-01-20T00:10:11.351Z,2.70
2023-01-20T00:11:44.636Z,1.60
2023-01-20T00:13:17.609Z,2.20
2023-01-20T00:14:52.335Z,0.50
2023-01-20T00:16:26.188Z,1.10
2023-01-20T00:17:59.634Z,0.70
2023-01-20T00:19:32.583Z,1.70
2023-01-20T00:21:05.944Z,1.70
2023-01-20T00:22:42.282Z,1.70
2023-01-20T00:24:16.113Z,1.60
2023-01-20T00:25:49.053Z,1.00
2023-01-20T00:27:22.043Z,2.30
2023-01-20T00:28:57.632Z,1.60
2023-01-20T00:30:32.525Z,-0.30
2023-01-20T00:32:05.849Z,1.60
2023-01-20T00:33:38.773Z,1.60
2023-01-20T00:35:12.401Z,1.90
2023-01-20T00:36:45.593Z,0.20
2023-01-20T00:38:18.160Z,1.50
2023-01-20T00:39:51.136Z,0.30
2023-01-20T00:41:24.605Z,1.40
2023-01-20T00:42:57.477Z,1.50
2023-01-20T00:44:30.463Z,1.50
2023-01-20T00:46:05.804Z,1.70
2023-01-20T00:47:38.885Z,2.20
2023-01-20T00:49:12.201Z,1.00
2023-01-20T00:50:45.179Z,1.70
2023-01-20T00:52:18.706Z,1.60
2023-01-20T00:53:51.725Z,2.50
2023-01-20T00:55:24.749Z,1.70
2023-01-20T00:56:57.779Z,1.90
2023-01-20T00:58:30.771Z,1.70
2023-01-20T01:00:03.851Z,2.60
2023-01-20T01:01:38.313Z,2.30
2023-01-20T01:03:10.525Z,1.50
2023-01-20T01:04:43.501Z,1.50
2023-01-20T01:06:18.943Z,2.60
2023-01-20T01:07:50.929Z,1.60
2023-01-20T01:09:23.870Z,1.60
2023-01-20T01:12:30.140Z,1.50
2023-01-20T01:14:03.119Z,1.10
2023-01-20T01:15:35.457Z,1.70
2023-01-20T01:17:09.807Z,2.30
2023-01-20T01:18:43.407Z,1.60
2023-01-20T01:20:16.475Z,2.40
2023-01-20T01:23:21.627Z,0.90
2023-01-20T01:24:54.732Z,2.10
2023-01-20T01:26:27.684Z,1.50
2023-01-20T01:28:00.629Z,1.00
2023-01-20T01:29:33.597Z,1.50
2023-01-20T01:31:08.666Z,1.50
2023-01-20T01:32:43.086Z,1.50
2023-01-20T01:34:16.337Z,1.50
2023-01-20T01:35:56.431Z,1.60
2023-01-20T01:37:29.907Z,1.60
2023-01-20T01:39:02.817Z,0.30
2023-01-20T01:40:35.740Z,1.60
2023-01-20T01:42:12.972Z,1.60
2023-01-20T01:44:02.482Z,1.80
2023-01-20T01:45:36.993Z,1.60
2023-01-20T01:47:10.138Z,1.80
2023-01-20T01:48:46.680Z,1.60
2023-01-20T01:50:22.716Z,0.80
2023-01-20T01:51:59.715Z,1.60
2023-01-20T01:53:38.550Z,1.60
2023-01-20T01:55:12.906Z,1.60
2023-01-20T01:56:47.435Z,1.60
2023-01-20T01:58:24.701Z,1.60
2023-01-20T01:59:57.696Z,1.60
2023-01-20T02:01:31.982Z,1.60
2023-01-20T02:03:04.745Z,1.60
2023-01-20T02:04:39.237Z,1.60
2023-01-20T02:06:13.985Z,1.60
2023-01-20T02:07:48.744Z,1.60
2023-01-20T02:09:22.489Z,1.60
2023-01-20T02:10:55.550Z,1.60
2023-01-20T02:12:29.995Z,1.60
2023-01-20T02:14:03.357Z,1.60
2023-01-20T02:15:39.732Z,1.60
2023-01-20T02:17:20.720Z,2.40
2023-01-20T02:19:05.935Z,0.50
2023-01-20T02:21:06.589Z,1.60
2023-01-20T02:22:49.417Z,2.60
2023-01-20T02:24:58.897Z,1.60
2023-01-20T02:27:02.965Z,1.60
2023-01-20T02:29:11.284Z,1.60
2023-01-20T02:31:21.280Z,2.80
2023-01-20T02:32:59.752Z,1.50
2023-01-20T02:34:39.290Z,1.60
2023-01-20T02:36:19.233Z,1.50
2023-01-20T02:38:01.605Z,1.50
2023-01-20T02:39:41.100Z,1.50
2023-01-20T02:41:27.279Z,1.50
2023-01-20T02:43:11.369Z,1.50
2023-01-20T02:44:52.602Z,1.50
2023-01-20T02:46:32.124Z,1.50
2023-01-20T02:48:12.056Z,1.50
2023-01-20T02:49:54.089Z,1.50
2023-01-20T02:51:30.926Z,1.50
2023-01-20T02:53:05.816Z,1.50
2023-01-20T02:54:43.271Z,1.50
2023-01-20T02:56:18.241Z,1.50
2023-01-20T02:57:56.861Z,1.50
2023-01-20T02:59:34.024Z,1.50
2023-01-20T03:01:12.786Z,1.50
2023-01-20T03:02:49.380Z,1.80
2023-01-20T03:04:27.059Z,1.50
2023-01-20T03:06:03.105Z,1.50
2023-01-20T03:07:38.392Z,1.40
2023-01-20T03:09:16.771Z,1.40
2023-01-20T03:10:53.534Z,1.30
2023-01-20T03:12:32.023Z,1.40
2023-01-20T03:14:08.865Z,1.40
2023-01-20T03:15:51.572Z,1.30
2023-01-20T03:17:24.812Z,1.30
2023-01-20T03:18:57.833Z,1.30
2023-01-20T03:20:32.238Z,1.80
2023-01-20T03:22:05.256Z,0.60
2023-01-20T03:23:41.704Z,1.30
2023-01-20T03:25:16.209Z,1.30
2023-01-20T03:26:49.361Z,1.30
2023-01-20T03:28:21.283Z,1.30
2023-01-20T03:29:54.284Z,1.20
2023-01-20T03:31:30.811Z,1.20
2023-01-20T03:33:04.987Z,2.20
2023-01-20T03:34:40.727Z,2.30
2023-01-20T03:36:16.540Z,1.20
2023-01-20T03:37:49.672Z,1.20
2023-01-20T03:39:25.544Z,1.10
2023-01-20T03:41:05.588Z,1.10
2023-01-20T03:42:44.773Z,1.10
2023-01-20T03:44:25.540Z,1.10
2023-01-20T03:46:04.073Z,1.10
2023-01-20T03:47:51.375Z,1.00
2023-01-20T03:49:30.753Z,1.00
2023-01-20T03:51:11.033Z,1.00
2023-01-20T03:52:54.068Z,0.90
2023-01-20T03:54:31.967Z,0.90
2023-01-20T03:56:08.931Z,2.40
2023-01-20T03:57:48.985Z,0.90
2023-01-20T03:59:23.824Z,0.90
2023-01-20T04:00:57.692Z,0.90
2023-01-20T04:02:33.306Z,0.10
2023-01-20T04:04:11.998Z,1.00
2023-01-20T04:05:46.247Z,1.00
2023-01-20T04:07:25.779Z,0.00
2023-01-20T04:09:04.359Z,0.70
2023-01-20T04:10:41.041Z,0.10
2023-01-20T04:12:14.620Z,1.20
2023-01-20T04:13:46.647Z,1.20
2023-01-20T04:15:20.848Z,3.10
2023-01-20T04:16:56.206Z,1.10
2023-01-20T04:18:29.357Z,1.10
2023-01-20T04:20:05.998Z,1.10
2023-01-20T04:21:43.180Z,1.10
2023-01-20T04:23:21.246Z,1.00
2023-01-20T04:24:58.432Z,1.10
2023-01-20T04:26:31.396Z,1.00
2023-01-20T04:28:04.345Z,2.00
2023-01-20T04:29:37.341Z,1.00
2023-01-20T04:31:25.002Z,1.00
2023-01-20T04:33:02.806Z,1.00
2023-01-20T04:34:35.891Z,1.00
2023-01-20T04:36:09.342Z,1.10
2023-01-20T04:37:42.119Z,1.00
2023-01-20T04:39:15.080Z,1.10
2023-01-20T04:40:48.467Z,1.00
2023-01-20T04:42:21.402Z,0.80
2023-01-20T04:43:54.554Z,1.10
2023-01-20T04:45:27.544Z,1.10
2023-01-20T04:46:59.630Z,1.20
2023-01-20T04:48:32.636Z,1.10
2023-01-20T04:50:06.194Z,0.60
2023-01-20T04:51:39.211Z,1.20
2023-01-20T04:53:13.450Z,1.10
2023-01-20T04:54:47.001Z,1.10
2023-01-20T04:56:21.261Z,1.10
2023-01-20T04:57:54.192Z,1.10
2023-01-20T04:59:27.411Z,1.10
2023-01-20T05:01:03.244Z,1.10
2023-01-20T05:02:36.237Z,1.80
2023-01-20T05:04:09.230Z,1.00
2023-01-20T05:05:42.183Z,1.10
2023-01-20T05:07:14.118Z,1.00
2023-01-20T05:08:46.978Z,1.10
2023-01-20T05:10:20.554Z,1.10
2023-01-20T05:11:54.844Z,1.00
2023-01-20T05:13:27.865Z,1.00
2023-01-20T05:15:00.956Z,1.10
2023-01-20T05:16:34.992Z,1.00
2023-01-20T05:18:07.980Z,1.00
2023-01-20T05:19:41.035Z,0.90
2023-01-20T05:21:14.092Z,1.10
2023-01-20T05:22:47.178Z,1.10
2023-01-20T05:24:20.255Z,1.10
2023-01-20T05:25:53.047Z,1.10
2023-01-20T05:27:27.548Z,1.20
2023-01-20T05:29:00.601Z,1.20
2023-01-20T05:30:33.512Z,1.10
2023-01-20T05:32:06.807Z,1.20
2023-01-20T05:33:40.112Z,1.20
2023-01-20T05:35:13.204Z,1.20
2023-01-20T05:36:45.327Z,1.20
2023-01-20T05:38:18.312Z,1.30
2023-01-20T05:39:51.242Z,1.30
2023-01-20T05:41:24.373Z,1.30
2023-01-20T05:43:01.689Z,0.20
2023-01-20T05:44:35.873Z,1.20
2023-01-20T05:46:09.023Z,1.30
2023-01-20T05:47:42.052Z,1.30
2023-01-20T05:49:15.311Z,1.20
2023-01-20T05:50:47.565Z,1.20
2023-01-20T05:52:20.736Z,2.10
2023-01-20T05:53:53.672Z,1.20
2023-01-20T05:55:26.859Z,1.20
2023-01-20T05:57:00.037Z,1.20
2023-01-20T05:58:34.630Z,2.20
2023-01-20T06:00:08.969Z,1.40
2023-01-20T06:01:41.987Z,1.30
2023-01-20T06:03:15.029Z,1.20
2023-01-20T06:04:48.745Z,0.30
2023-01-20T06:06:21.753Z,0.90
2023-01-20T06:07:56.287Z,1.30
2023-01-20T06:09:29.479Z,1.30
2023-01-20T06:11:02.674Z,1.30
2023-01-20T06:12:35.804Z,1.30
2023-01-20T06:14:10.137Z,1.30
2023-01-20T06:15:43.201Z,1.30
2023-01-20T06:17:16.250Z,1.30
2023-01-20T06:18:49.154Z,1.30
2023-01-20T06:20:22.726Z,1.30
2023-01-20T06:21:55.800Z,2.40
2023-01-20T06:23:28.980Z,1.50
2023-01-20T06:25:01.938Z,1.40
2023-01-20T06:26:34.934Z,1.40
2023-01-20T06:28:07.897Z,1.10
2023-01-20T06:29:42.333Z,1.40
2023-01-20T06:31:17.240Z,1.40
2023-01-20T06:32:50.379Z,1.40
2023-01-20T06:34:23.402Z,1.00
2023-01-20T06:35:57.019Z,1.40
2023-01-20T06:37:30.131Z,1.40
2023-01-20T06:39:03.072Z,1.50
2023-01-20T06:40:36.204Z,1.50
2023-01-20T06:42:10.162Z,0.20
2023-01-20T06:43:44.802Z,1.60
2023-01-20T06:45:19.168Z,1.50
2023-01-20T06:46:52.301Z,1.50
2023-01-20T06:48:25.216Z,1.50
2023-01-20T06:49:58.394Z,1.60
2023-01-20T06:51:35.957Z,1.60
2023-01-20T06:53:09.866Z,3.60
2023-01-20T06:54:42.785Z,3.50
2023-01-20T06:56:17.062Z,1.60
2023-01-20T06:57:49.941Z,1.60
2023-01-20T06:59:22.888Z,0.50
2023-01-20T07:00:57.996Z,1.70
2023-01-20T07:02:31.011Z,1.70
2023-01-20T07:04:03.974Z,1.30
2023-01-20T07:05:36.952Z,2.50
2023-01-20T07:07:12.706Z,3.80
2023-01-20T07:08:46.187Z,1.90
2023-01-20T07:10:19.681Z,1.80
2023-01-20T07:11:52.695Z,1.80
2023-01-20T07:13:25.661Z,1.80
2023-01-20T07:14:58.892Z,1.80
2023-01-20T07:16:33.945Z,1.70
2023-01-20T07:18:06.953Z,1.80
2023-01-20T07:19:39.914Z,1.70
2023-01-20T07:21:13.323Z,1.70
2023-01-20T07:22:46.131Z,1.80
2023-01-20T07:24:19.017Z,1.80
2023-01-20T07:25:58.742Z,0.60
2023-01-20T07:27:31.688Z,1.80
2023-01-20T07:29:04.767Z,1.90
2023-01-20T07:30:37.732Z,1.80
2023-01-20T07:32:12.146Z,1.70
2023-01-20T07:33:45.393Z,2.90
2023-01-20T07:35:18.970Z,1.70
2023-01-20T07:36:53.042Z,1.30
2023-01-20T07:38:26.057Z,1.70
2023-01-20T07:39:59.038Z,1.70
2023-01-20T07:41:32.455Z,1.80
2023-01-20T07:43:05.464Z,1.70
2023-01-20T07:44:38.357Z,0.90
2023-01-20T07:46:11.948Z,1.60
2023-01-20T07:47:46.229Z,1.60
2023-01-20T07:49:25.898Z,1.40
2023-01-20T07:51:02.760Z,1.60
2023-01-20T07:52:35.871Z,1.60
2023-01-20T07:54:11.320Z,1.60
2023-01-20T07:55:44.295Z,1.60
2023-01-20T07:57:17.226Z,3.10
2023-01-20T07:58:51.402Z,2.30
2023-01-20T08:00:24.664Z,1.70
2023-01-20T08:01:57.644Z,2.30
2023-01-20T08:03:31.953Z,0.90
2023-01-20T08:05:05.321Z,0.90
2023-01-20T08:06:38.089Z,1.60
2023-01-20T08:09:44.644Z,1.60
2023-01-20T08:11:19.436Z,2.10
2023-01-20T08:12:52.302Z,2.30
2023-01-20T08:14:25.621Z,1.60
2023-01-20T08:16:00.803Z,1.50
2023-01-20T08:17:33.782Z,1.60
2023-01-20T08:19:08.042Z,1.60
2023-01-20T08:20:41.480Z,1.30
2023-01-20T08:22:14.245Z,1.50
2023-01-20T08:23:47.152Z,1.60
2023-01-20T08:25:20.158Z,1.60
2023-01-20T08:26:53.472Z,1.60
2023-01-20T08:28:26.484Z,-0.10
2023-01-20T08:29:59.333Z,2.50
2023-01-20T08:31:32.335Z,1.70
2023-01-20T08:33:05.497Z,1.90
2023-01-20T08:34:39.810Z,1.70
2023-01-20T08:36:15.030Z,3.20
2023-01-20T08:37:47.967Z,1.70
2023-01-20T08:39:21.548Z,1.70
2023-01-20T08:40:54.646Z,1.80
2023-01-20T08:42:27.542Z,1.80
2023-01-20T08:44:01.568Z,0.90
2023-01-20T08:45:34.566Z,1.90
2023-01-20T08:47:07.539Z,1.90
2023-01-20T08:48:42.011Z,1.90
2023-01-20T08:50:16.942Z,2.10
2023-01-20T08:51:50.656Z,2.00
2023-01-20T08:53:23.644Z,2.50
2023-01-20T08:54:56.581Z,2.00
2023-01-20T08:56:30.671Z,2.00
2023-01-20T08:58:03.610Z,2.80
2023-01-20T08:59:36.467Z,2.00
2023-01-20T09:01:10.518Z,2.00
2023-01-20T09:02:43.537Z,2.30
2023-01-20T09:04:16.453Z,1.90
2023-01-20T09:05:50.846Z,2.00
2023-01-20T09:07:23.801Z,2.10
2023-01-20T09:08:56.644Z,2.10
2023-01-20T09:10:29.550Z,2.10
2023-01-20T09:12:02.440Z,2.10
2023-01-20T09:13:35.345Z,2.20
2023-01-20T09:15:09.529Z,2.70
2023-01-20T09:16:42.384Z,2.20
2023-01-20T09:18:15.238Z,2.30
2023-01-20T09:19:48.147Z,2.30
2023-01-20T09:21:22.395Z,2.30
2023-01-20T09:22:55.419Z,2.00
2023-01-20T09:24:28.354Z,2.40
2023-01-20T09:26:01.675Z,2.40
2023-01-20T09:27:34.555Z,2.00
2023-01-20T09:29:12.267Z,2.30
2023-01-20T09:30:45.196Z,2.60
2023-01-20T09:32:18.149Z,2.60
2023-01-20T09:33:50.967Z,2.70
2023-01-20T09:35:23.855Z,1.40
2023-01-20T09:37:19.912Z,2.60
2023-01-20T09:39:10.220Z,2.60
2023-01-20T09:41:11.201Z,2.60
2023-01-20T09:43:19.398Z,3.40
2023-01-20T09:44:57.246Z,2.70
2023-01-20T09:46:38.109Z,2.60
2023-01-20T09:48:28.109Z,2.80
2023-01-20T09:50:36.058Z,2.90
2023-01-20T09:52:35.886Z,2.90
2023-01-20T09:54:15.687Z,2.90
2023-01-20T09:55:52.245Z,2.10
2023-01-20T09:57:26.612Z,2.60
2023-01-20T09:59:04.420Z,2.60
2023-01-20T10:00:39.729Z,2.50
2023-01-20T10:02:18.236Z,2.50
2023-01-20T10:03:57.590Z,2.50
2023-01-20T10:05:34.757Z,2.50
2023-01-20T10:07:13.352Z,2.50
2023-01-20T10:09:04.522Z,2.50
2023-01-20T10:10:44.067Z,2.50
2023-01-20T10:12:23.095Z,2.50
2023-01-20T10:14:04.622Z,2.60
2023-01-20T10:15:38.961Z,2.70
2023-01-20T10:17:16.636Z,2.70
2023-01-20T10:18:55.473Z,4.90
2023-01-20T10:20:33.178Z,2.80
2023-01-20T10:22:11.271Z,2.90
2023-01-20T10:23:52.458Z,3.00
2023-01-20T10:25:31.552Z,3.10
2023-01-20T10:27:05.748Z,2.70
2023-01-20T10:28:42.515Z,3.60
2023-01-20T10:30:16.641Z,3.10
2023-01-20T10:31:58.306Z,3.10
2023-01-20T10:33:34.843Z,3.10
2023-01-20T10:35:15.602Z,3.20
2023-01-20T10:36:56.139Z,3.30
2023-01-20T10:38:37.272Z,3.30
2023-01-20T10:40:26.509Z,3.30
2023-01-20T10:42:05.240Z,3.30
2023-01-20T10:43:38.299Z,3.30
2023-01-20T10:45:20.094Z,3.20
2023-01-20T10:47:08.779Z,3.10
2023-01-20T10:48:54.132Z,2.70
2023-01-20T10:50:42.983Z,3.00
2023-01-20T10:52:30.536Z,3.00
2023-01-20T10:54:12.181Z,3.00
2023-01-20T10:55:58.145Z,2.40
2023-01-20T10:57:31.156Z,3.20
2023-01-20T10:59:09.388Z,3.40
2023-01-20T11:00:43.783Z,3.50
2023-01-20T11:02:20.645Z,3.50
2023-01-20T11:03:53.741Z,3.50
2023-01-20T11:05:28.953Z,3.60
2023-01-20T11:07:03.639Z,3.70
2023-01-20T11:08:36.606Z,3.70
2023-01-20T11:10:16.557Z,3.70
2023-01-20T11:11:51.036Z,3.70
2023-01-20T11:13:24.296Z,5.30
2023-01-20T11:15:00.097Z,3.60
2023-01-20T11:16:33.451Z,3.50
2023-01-20T11:18:23.128Z,3.50
2023-01-20T11:19:57.791Z,3.60
2023-01-20T11:21:33.423Z,3.70
2023-01-20T11:23:06.376Z,4.70
2023-01-20T11:24:43.671Z,3.90
2023-01-20T11:26:21.564Z,4.00
2023-01-20T11:27:56.054Z,3.90
2023-01-20T11:29:31.103Z,3.80
2023-01-20T11:31:05.301Z,3.80
2023-01-20T11:32:40.180Z,3.70
2023-01-20T11:34:23.663Z,3.70
2023-01-20T11:36:01.737Z,3.20
2023-01-20T11:37:39.405Z,3.70
2023-01-20T11:39:26.690Z,3.80
2023-01-20T11:41:00.171Z,3.90
2023-01-20T11:42:44.741Z,3.90
2023-01-20T11:44:21.487Z,3.80
2023-01-20T11:46:16.351Z,3.90
2023-01-20T11:48:02.412Z,3.90
2023-01-20T11:49:35.370Z,5.70
2023-01-20T11:51:22.291Z,3.70
2023-01-20T11:53:14.166Z,3.70
2023-01-20T11:54:47.689Z,3.30
2023-01-20T11:56:23.886Z,3.70
2023-01-20T11:57:59.421Z,3.80
2023-01-20T11:59:35.581Z,3.80
2023-01-20T12:01:18.832Z,3.80
2023-01-20T12:02:58.585Z,3.70
2023-01-20T12:04:45.713Z,3.60
2023-01-20T12:06:24.181Z,3.60
2023-01-20T12:07:57.732Z,3.60
2023-01-20T12:09:35.183Z,3.60
2023-01-20T12:11:10.295Z,3.60
2023-01-20T12:12:48.979Z,3.70
2023-01-20T12:14:25.395Z,3.70
2023-01-20T12:16:02.150Z,3.80
2023-01-20T12:17:42.063Z,3.90
2023-01-20T12:19:19.350Z,3.80
2023-01-20T12:20:58.602Z,3.30
2023-01-20T12:22:39.556Z,4.00
2023-01-20T12:24:19.539Z,4.00
2023-01-20T12:25:56.593Z,4.00
2023-01-20T12:27:29.888Z,5.40
2023-01-20T12:29:06.715Z,3.90
2023-01-20T12:30:55.341Z,3.80
2023-01-20T12:32:31.566Z,3.90
2023-01-20T12:34:06.693Z,3.80
2023-01-20T12:35:47.892Z,3.60
2023-01-20T12:37:28.367Z,4.30
2023-01-20T12:39:19.516Z,3.50
2023-01-20T12:40:54.473Z,5.00
2023-01-20T12:42:44.984Z,3.50
2023-01-20T12:44:23.007Z,3.40
2023-01-20T12:46:21.438Z,3.40
2023-01-20T12:48:08.481Z,4.00
2023-01-20T12:49:56.266Z,3.20
2023-01-20T12:51:43.635Z,3.30
2023-01-20T12:53:25.588Z,3.40
2023-01-20T12:55:12.213Z,3.30
2023-01-20T12:56:52.300Z,3.20
2023-01-20T12:58:39.792Z,3.10
2023-01-20T13:00:29.205Z,3.10
2023-01-20T13:02:22.775Z,3.10
2023-01-20T13:04:38.355Z,2.30
2023-01-20T13:06:38.312Z,3.10
2023-01-20T13:08:19.126Z,3.00
2023-01-20T13:10:04.152Z,3.00
2023-01-20T13:11:50.697Z,3.00
2023-01-20T13:13:40.233Z,3.30
2023-01-20T13:15:27.829Z,2.90
2023-01-20T13:17:09.099Z,3.70
2023-01-20T13:18:54.912Z,2.80
2023-01-20T13:20:29.859Z,2.80
2023-01-20T13:22:12.420Z,2.80
2023-01-20T13:23:46.304Z,2.70
2023-01-20T13:25:20.841Z,2.70
2023-01-20T13:26:53.871Z,2.80
2023-01-20T13:28:28.956Z,2.80
2023-01-20T13:30:04.579Z,2.90
2023-01-20T13:31:45.903Z,2.90
2023-01-20T13:33:36.423Z,2.80
2023-01-20T13:35:43.359Z,2.90
2023-01-20T13:37:39.288Z,2.00
2023-01-20T13:39:40.763Z,2.70
2023-01-20T13:41:33.784Z,2.70
2023-01-20T13:43:59.547Z,2.60
2023-01-20T13:45:32.514Z,2.60
2023-01-20T13:47:08.432Z,1.70
2023-01-20T13:49:14.001Z,1.80
2023-01-20T13:50:50.063Z,2.40
2023-01-20T13:53:00.709Z,2.40
2023-01-20T13:54:42.896Z,2.30
2023-01-20T13:56:29.944Z,2.40
2023-01-20T13:58:02.894Z,2.40
2023-01-20T13:59:34.915Z,2.40
2023-01-20T14:01:13.606Z,3.10
2023-01-20T14:02:48.543Z,1.60
2023-01-20T14:04:22.009Z,2.50
2023-01-20T14:05:55.322Z,2.60
2023-01-20T14:07:30.547Z,2.70
2023-01-20T14:09:07.859Z,2.80
2023-01-20T14:10:43.899Z,2.90
2023-01-20T14:12:16.736Z,2.90
2023-01-20T14:13:53.607Z,3.00
2023-01-20T14:15:37.925Z,3.00
2023-01-20T14:17:16.655Z,3.10
2023-01-20T14:18:49.854Z,3.10
2023-01-20T14:20:24.883Z,3.10
2023-01-20T14:22:01.673Z,3.10
2023-01-20T14:23:39.586Z,3.10
2023-01-20T14:25:20.814Z,2.30
2023-01-20T14:27:07.260Z,2.90
2023-01-20T14:28:48.988Z,3.00
2023-01-20T14:30:24.806Z,2.90
2023-01-20T14:31:58.003Z,2.90
2023-01-20T14:33:30.754Z,2.80
2023-01-20T14:35:13.172Z,2.80
2023-01-20T14:36:47.139Z,2.70
2023-01-20T14:38:20.175Z,2.80
2023-01-20T14:39:54.936Z,2.70
2023-01-20T14:41:34.549Z,2.80
2023-01-20T14:43:18.095Z,2.80
2023-01-20T14:44:52.999Z,2.70
2023-01-20T14:46:27.220Z,2.60
2023-01-20T14:48:02.334Z,2.90
2023-01-20T14:49:39.383Z,2.70
2023-01-20T14:51:13.127Z,2.70
2023-01-20T14:52:46.791Z,2.70
2023-01-20T14:54:40.139Z,2.60
2023-01-20T14:56:20.380Z,2.60
2023-01-20T14:57:53.288Z,2.70
2023-01-20T14:59:27.117Z,2.60
2023-01-20T15:01:03.151Z,2.50
2023-01-20T15:02:37.877Z,2.50
2023-01-20T15:04:12.857Z,2.40
2023-01-20T15:05:56.325Z,2.40
2023-01-20T15:07:29.476Z,2.40
2023-01-20T15:09:07.058Z,2.40
2023-01-20T15:10:40.362Z,2.40
2023-01-20T15:12:40.204Z,2.40
2023-01-20T15:14:13.818Z,2.30
2023-01-20T15:15:48.152Z,2.30
2023-01-20T15:17:21.042Z,2.20
2023-01-20T15:19:32.351Z,3.40
2023-01-20T15:21:27.016Z,3.10
2023-01-20T15:23:00.156Z,2.20
2023-01-20T15:24:35.318Z,2.20
2023-01-20T15:26:10.637Z,2.20
2023-01-20T15:27:43.562Z,1.10
2023-01-20T15:29:21.968Z,1.50
2023-01-20T15:30:58.578Z,2.20
2023-01-20T15:32:31.749Z,2.40
2023-01-20T15:34:04.583Z,2.20
2023-01-20T15:35:37.491Z,2.10
2023-01-20T15:37:18.378Z,2.00
2023-01-20T15:38:51.648Z,2.60
2023-01-20T15:40:26.798Z,2.00
2023-01-20T15:42:01.374Z,1.90
2023-01-20T15:43:34.351Z,2.00
2023-01-20T15:45:08.180Z,2.00
2023-01-20T15:46:42.833Z,2.00
2023-01-20T15:48:18.072Z,2.00
2023-01-20T15:49:50.987Z,1.90
2023-01-20T15:51:23.863Z,1.90
2023-01-20T15:52:56.786Z,1.80
2023-01-20T15:54:29.664Z,1.90
2023-01-20T15:56:03.203Z,1.80
2023-01-20T15:57:36.085Z,1.70
2023-01-20T15:59:13.076Z,1.70
2023-01-20T16:00:46.025Z,1.50
2023-01-20T16:02:21.738Z,1.60
2023-01-20T16:03:55.816Z,3.00
2023-01-20T16:05:28.714Z,1.50
2023-01-20T16:07:01.671Z,0.20
2023-01-20T16:08:38.654Z,1.40
2023-01-20T16:10:17.122Z,1.40
2023-01-20T16:11:50.219Z,1.30
2023-01-20T16:13:23.085Z,1.20
2023-01-20T16:14:57.096Z,1.30
2023-01-20T16:16:31.170Z,1.20
2023-01-20T16:18:06.023Z,0.70
2023-01-20T16:19:38.979Z,1.10
2023-01-20T16:21:12.906Z,1.70
2023-01-20T16:22:44.845Z,1.10
2023-01-20T16:24:17.803Z,1.00
2023-01-20T16:25:50.726Z,0.90
2023-01-20T16:27:24.199Z,1.00
2023-01-20T16:28:58.613Z,1.00
2023-01-20T16:30:31.619Z,0.70
2023-01-20T16:32:04.565Z,-0.40
2023-01-20T16:33:38.885Z,0.80
2023-01-20T16:35:11.817Z,0.80
2023-01-20T16:36:44.700Z,0.80
2023-01-20T16:38:19.324Z,0.80
2023-01-20T16:39:52.299Z,0.80
2023-01-20T16:41:26.508Z,0.80
2023-01-20T16:42:59.379Z,0.80
2023-01-20T16:44:32.252Z,0.90
2023-01-20T16:46:05.307Z,0.90
2023-01-20T16:47:38.294Z,0.80
2023-01-20T16:49:12.641Z,0.80
2023-01-20T16:50:45.554Z,0.80
2023-01-20T16:52:18.459Z,0.70
2023-01-20T16:53:51.329Z,1.00
2023-01-20T16:55:25.259Z,0.50
2023-01-20T16:56:58.150Z,1.10
2023-01-20T16:58:31.038Z,0.30
2023-01-20T17:00:05.675Z,0.50
2023-01-20T17:01:38.653Z,0.60
2023-01-20T17:03:11.562Z,0.60
2023-01-20T17:04:45.845Z,0.60
2023-01-20T17:06:21.646Z,0.60
2023-01-20T17:07:56.790Z,0.60
2023-01-20T17:09:29.627Z,0.60
2023-01-20T17:11:02.564Z,0.60
2023-01-20T17:12:35.741Z,0.60
2023-01-20T17:14:10.336Z,0.60
2023-01-20T17:15:43.371Z,0.60
2023-01-20T17:17:16.297Z,0.60
2023-01-20T17:18:50.198Z,0.50
2023-01-20T17:20:26.076Z,0.40
2023-01-20T17:21:59.044Z,0.40
2023-01-20T17:23:32.031Z,0.30
2023-01-20T17:25:05.449Z,0.20
2023-01-20T17:26:38.555Z,0.20
2023-01-20T17:28:11.418Z,0.20
2023-01-20T17:29:44.343Z,0.20
2023-01-20T17:31:17.237Z,0.20
2023-01-20T17:32:50.162Z,0.20
2023-01-20T17:34:23.053Z,0.20
2023-01-20T17:36:02.213Z,0.10
2023-01-20T17:37:35.237Z,0.20
2023-01-20T17:39:08.574Z,0.20
2023-01-20T17:40:41.489Z,0.50
2023-01-20T17:42:16.717Z,0.10
2023-01-20T17:43:50.356Z,0.10
2023-01-20T17:45:23.178Z,-0.50
2023-01-20T17:46:56.176Z,0.50
2023-01-20T17:48:29.149Z,1.50
2023-01-20T17:50:02.047Z,0.20
2023-01-20T17:51:36.421Z,0.20
2023-01-20T17:53:09.547Z,0.20
2023-01-20T17:54:42.449Z,0.20
2023-01-20T17:56:16.426Z,0.20
2023-01-20T17:57:51.084Z,1.90
2023-01-20T17:59:24.327Z,0.10
2023-01-20T18:00:57.230Z,0.10
2023-01-20T18:02:30.280Z,0.40
2023-01-20T18:04:04.339Z,0.10
2023-01-20T18:05:37.284Z,0.00
2023-01-20T18:07:11.553Z,-0.10
2023-01-20T18:08:45.528Z,-0.10
2023-01-20T18:10:18.784Z,-0.10
2023-01-20T18:11:51.780Z,-0.10
2023-01-20T18:13:24.713Z,-0.10
2023-01-20T18:14:58.601Z,-0.10
2023-01-20T18:16:33.629Z,-0.10
2023-01-20T18:18:06.651Z,-0.10
2023-01-20T18:19:39.663Z,-0.10
2023-01-20T18:21:14.526Z,-0.10
2023-01-20T18:22:50.320Z,-0.10
2023-01-20T18:24:23.250Z,-0.10
2023-01-20T18:25:58.450Z,-0.10
2023-01-20T18:27:31.361Z,-0.30
2023-01-20T18:29:08.546Z,-0.20
2023-01-20T18:30:41.534Z,-0.20
2023-01-20T18:32:14.539Z,-0.10
2023-01-20T18:33:50.079Z,-0.10
2023-01-20T18:35:23.030Z,-0.10
2023-01-20T18:36:55.915Z,0.00
2023-01-20T18:38:30.250Z,0.10
2023-01-20T18:40:04.121Z,0.10
2023-01-20T18:41:38.184Z,0.10
2023-01-20T18:43:11.106Z,0.20
2023-01-20T18:44:44.019Z,0.20
2023-01-20T18:46:17.388Z,0.20
2023-01-20T18:47:50.284Z,0.20
2023-01-20T18:49:23.349Z,1.10
2023-01-20T18:50:59.730Z,0.20
2023-01-20T18:52:32.848Z,0.20
2023-01-20T18:54:10.406Z,0.20
2023-01-20T18:55:43.316Z,0.20
2023-01-20T18:57:16.220Z,0.10
2023-01-20T18:58:49.815Z,0.10
2023-01-20T19:00:23.405Z,0.00
2023-01-20T19:01:58.402Z,0.00
2023-01-20T19:03:31.438Z,0.00
2023-01-20T19:05:04.393Z,0.00
2023-01-20T19:06:39.049Z,-0.10
2023-01-20T19:08:12.021Z,1.10
2023-01-20T19:09:47.453Z,-0.10
2023-01-20T19:11:22.728Z,-0.20
2023-01-20T19:12:55.650Z,-0.20
2023-01-20T19:14:28.730Z,-0.20
2023-01-20T19:16:01.009Z,-0.20
2023-01-20T19:17:34.095Z,0.20
2023-01-20T19:19:08.827Z,-0.20
2023-01-20T19:20:41.770Z,-0.30
2023-01-20T19:22:14.692Z,-0.30
2023-01-20T19:23:50.798Z,-0.30
2023-01-20T19:25:29.548Z,-0.30
2023-01-20T19:27:03.665Z,-0.30
2023-01-20T19:28:36.878Z,-1.30
2023-01-20T19:30:11.219Z,-1.40
2023-01-20T19:31:44.208Z,-0.30
2023-01-20T19:33:17.447Z,-1.10
2023-01-20T19:34:50.388Z,-0.30
2023-01-20T19:36:23.586Z,-0.40
2023-01-20T19:37:56.475Z,-0.40
2023-01-20T19:39:29.387Z,-0.40
2023-01-20T19:41:07.970Z,-0.40
2023-01-20T19:42:40.891Z,-0.40
2023-01-20T19:44:14.115Z,-0.40
2023-01-20T19:45:47.087Z,-0.40
2023-01-20T19:47:19.988Z,-0.40
2023-01-20T19:48:53.277Z,-0.40
2023-01-20T19:50:26.506Z,-0.40
2023-01-20T19:52:00.697Z,-0.40
2023-01-20T19:53:34.419Z,-1.40
2023-01-20T19:55:07.579Z,0.30
2023-01-20T19:56:42.136Z,-0.40
2023-01-20T19:58:15.158Z,-0.50
2023-01-20T19:59:48.133Z,-0.50
2023-01-20T20:01:23.420Z,-0.80
2023-01-20T20:02:56.544Z,-0.60
2023-01-20T20:04:29.604Z,-1.50
2023-01-20T20:06:02.867Z,-0.60
2023-01-20T20:07:35.902Z,-0.70
2023-01-20T20:09:11.473Z,-0.60
2023-01-20T20:10:44.518Z,-0.80
2023-01-20T20:12:18.910Z,-0.60
2023-01-20T20:13:55.023Z,-0.60
2023-01-20T20:15:28.354Z,-0.40
2023-01-20T20:17:01.455Z,2.00
2023-01-20T20:18:34.436Z,-0.50
2023-01-20T20:20:07.980Z,0.30
2023-01-20T20:21:40.733Z,-0.50
2023-01-20T20:23:13.658Z,-0.50
2023-01-20T20:24:46.909Z,-0.50
2023-01-20T20:26:21.058Z,-0.20
2023-01-20T20:27:56.489Z,-0.30
2023-01-20T20:29:29.602Z,-1.40
2023-01-20T20:31:06.099Z,-0.60
2023-01-20T20:32:39.136Z,-0.10
2023-01-20T20:34:14.228Z,0.30
2023-01-20T20:35:46.307Z,-0.60
2023-01-20T20:37:19.306Z,0.00
2023-01-20T20:38:54.289Z,-0.60
2023-01-20T20:40:27.324Z,0.00
2023-01-20T20:42:00.216Z,0.10
2023-01-20T20:43:34.808Z,-0.20
2023-01-20T20:45:08.989Z,-0.80
2023-01-20T20:46:43.370Z,-0.80
2023-01-20T20:48:16.523Z,-2.10
2023-01-20T20:49:49.576Z,-0.70
2023-01-20T20:51:24.014Z,-0.90
2023-01-20T20:52:57.953Z,-2.30
2023-01-20T20:54:31.006Z,0.50
2023-01-20T20:56:08.666Z,-0.30
2023-01-20T20:57:41.606Z,-0.10
2023-01-20T20:59:16.042Z,-0.70
2023-01-20T21:00:51.059Z,-0.80
2023-01-20T21:02:24.101Z,-0.10
2023-01-20T21:03:57.944Z,0.40
2023-01-20T21:05:31.226Z,-0.90
2023-01-20T21:07:04.174Z,-0.50
2023-01-20T21:08:37.287Z,-0.50
2023-01-20T21:10:13.587Z,-0.70
2023-01-20T21:11:46.836Z,-0.40
2023-01-20T21:13:19.862Z,-0.60
2023-01-20T21:14:54.441Z,-1.00
2023-01-20T21:16:28.030Z,-0.80
2023-01-20T21:18:01.285Z,-1.40
2023-01-20T21:19:34.320Z,0.20
2023-01-20T21:21:11.065Z,-0.80